BIHL weather

Hella Airport
Hella, Southern Region, Iceland

Public forecast

Using degrees Celsius for public forecast. Weather courtesy of forecast.io.

Closest aviation weather report (METAR) to Hella Airport

Report is more than 6 hours old.

Closest report is Vestmannaeyjar Airport, 24.8 nm (46.0 km) S. Retrieved 2020/05/27 18:00 UTC (10 hours ago):

BIVM 271800Z 20018KT 9999 -RA SCT020 BKN030 08/06 Q1019

Closest aviation forecast (TAF) to Hella Airport

Closest forecast is Reykjavik Airport, 44.8 nm (83.0 km) WNW. Retrieved 2020-05-28 03:07 UTC (53 minutes ago):

TAF BIRK 280105Z 2803/2903 19016KT 9999 -RA BKN015 OVC025 TX11/2817Z TN07/2806Z BECMG 2803/2805 9999 -SHRA FEW018 BKN025 BECMG 2810/2812 13013KT -RADZ SCT014 BKN018 OVC024 PROB40 TEMPO 2812/2903 4000 DZ BR BKN010 OVC018 BECMG 2822/2900 13022G32KT